Time;durP1;ratioP1;P1;durP2;ratioP2;P2;SDS_P1;SDS_P2;PMS_P1;PMS_P2;Temp;Humidity;BMP_temperature;BMP_pressure;BME280_temperature;BME280_humidity;BME280_pressure;Samples;Min_cycle;Max_cycle;Signal;HPM_P1;HPM_P2
2022/07/02 00:00:15;;;;;;;;;;;32.10;50.00;;;;;;689086;28;1332;-93
2022/07/02 00:00:36;;;;;;;;;;;32.10;49.80;;;;;;688809;28;1351;-92
2022/07/02 00:00:57;;;;;;;;;;;32.10;49.80;;;;;;688927;28;851;-92
2022/07/02 00:01:19;;;;;;;;;;;32.10;49.80;;;;;;689782;28;1342;-93
2022/07/02 00:01:42;;;;;;;;;;;32.10;49.80;;;;;;691649;28;918;-92
2022/07/02 00:02:03;;;;;;;;;;;32.10;49.80;;;;;;690041;28;1383;-92
2022/07/02 00:02:25;;;;;;;;;;;32.10;49.80;;;;;;692475;28;1434;-92
2022/07/02 00:02:48;;;;;;;;;;;32.10;49.90;;;;;;694391;28;972;-91
2022/07/02 00:03:09;;;;;;;;;;;32.10;49.80;;;;;;694241;28;1358;-93
2022/07/02 00:03:34;;;;;;;;;;;32.10;49.90;;;;;;691531;28;1181;-93
2022/07/02 00:03:59;;;;;;;;;;;32.10;49.90;;;;;;692989;28;764;-93
2022/07/02 00:04:21;;;;;;;;;;;32.10;49.90;;;;;;692232;28;1687;-93
2022/07/02 00:04:43;;;;;;;;;;;32.10;50.10;;;;;;691583;28;1365;-91
2022/07/02 00:05:05;;;;;;;;;;;32.10;50.30;;;;;;691440;28;1133;-91
2022/07/02 00:05:27;;;;;;;;;;;32.10;50.20;;;;;;693705;28;989;-92
2022/07/02 00:05:51;;;;;;;;;;;32.10;50.00;;;;;;694276;28;858;-92
2022/07/02 00:06:12;;;;;;;;;;;32.10;50.10;;;;;;694303;28;898;-91
2022/07/02 00:06:35;;;;;;;;;;;32.10;50.10;;;;;;691535;28;1115;-91
2022/07/02 00:06:56;;;;;;;;;;;32.10;49.90;;;;;;693023;28;898;-92
2022/07/02 00:07:16;;;;;;;;;;;32.10;50.00;;;;;;694389;28;853;-91
2022/07/02 00:07:37;;;;;;;;;;;32.10;50.00;;;;;;691372;28;1316;-92
2022/07/02 00:07:57;;;;;;;;;;;32.10;50.30;;;;;;691453;28;1191;-91
2022/07/02 00:08:18;;;;;;;;;;;32.10;50.20;;;;;;691950;28;1370;-92
2022/07/02 00:08:42;;;;;;;;;;;32.10;50.10;;;;;;694216;28;1279;-92
2022/07/02 00:09:03;;;;;;;;;;;32.10;50.10;;;;;;694188;28;882;-92
2022/07/02 00:09:25;;;;;;;;;;;32.00;49.80;;;;;;695077;28;795;-92
2022/07/02 00:09:45;;;;;;;;;;;32.00;49.80;;;;;;693194;28;1494;-91
2022/07/02 00:10:06;;;;;;;;;;;32.00;49.90;;;;;;688767;28;1182;-92
2022/07/02 00:10:27;;;;;;;;;;;32.00;49.80;;;;;;688825;28;1234;-92
2022/07/02 00:10:48;;;;;;;;;;;32.00;50.10;;;;;;688941;28;906;-91
2022/07/02 00:11:12;;;;;;;;;;;32.00;49.90;;;;;;688690;28;1349;-91
2022/07/02 00:11:33;;;;;;;;;;;32.00;50.00;;;;;;689621;28;1185;-92
2022/07/02 00:11:57;;;;;;;;;;;32.00;49.80;;;;;;692535;28;1953;-92
2022/07/02 00:12:17;;;;;;;;;;;32.00;49.90;;;;;;694219;28;1188;-91
2022/07/02 00:12:38;;;;;;;;;;;32.00;50.10;;;;;;691458;28;1630;-93
2022/07/02 00:12:59;;;;;;;;;;;32.00;50.00;;;;;;691536;28;1615;-92
2022/07/02 00:13:20;;;;;;;;;;;32.00;49.70;;;;;;692295;28;831;-91
2022/07/02 00:13:41;;;;;;;;;;;32.00;49.90;;;;;;694375;28;953;-92
2022/07/02 00:14:02;;;;;;;;;;;32.00;50.10;;;;;;694251;28;779;-92
2022/07/02 00:14:24;;;;;;;;;;;32.00;50.10;;;;;;691459;28;831;-92
2022/07/02 00:14:46;;;;;;;;;;;32.00;50.00;;;;;;691509;28;1205;-91
2022/07/02 00:15:07;;;;;;;;;;;32.00;49.80;;;;;;692139;28;1286;-91
2022/07/02 00:15:27;;;;;;;;;;;32.00;49.70;;;;;;691567;28;1196;-92
2022/07/02 00:15:48;;;;;;;;;;;32.00;50.00;;;;;;691647;28;1285;-91
2022/07/02 00:16:09;;;;;;;;;;;32.00;50.20;;;;;;691663;28;1208;-91
2022/07/02 00:16:30;;;;;;;;;;;32.00;49.80;;;;;;691730;28;807;-91
2022/07/02 00:16:52;;;;;;;;;;;32.00;50.00;;;;;;691612;28;893;-92
2022/07/02 00:17:12;;;;;;;;;;;35.30;52.30;;;;;;692293;28;791;-91
2022/07/02 00:17:33;;;;;;;;;;;32.00;50.40;;;;;;691414;28;1193;-91
2022/07/02 00:17:54;;;;;;;;;;;32.00;50.10;;;;;;689428;28;1265;-91
2022/07/02 00:18:15;;;;;;;;;;;32.00;50.00;;;;;;691627;28;898;-91
2022/07/02 00:18:35;;;;;;;;;;;32.00;49.80;;;;;;691546;28;1221;-91
2022/07/02 00:18:57;;;;;;;;;;;32.00;50.90;;;;;;691651;28;925;-91
2022/07/02 00:19:17;;;;;;;;;;;32.00;49.70;;;;;;692142;28;862;-91
2022/07/02 00:19:38;;;;;;;;;;;32.00;50.60;;;;;;694694;28;1204;-92
2022/07/02 00:20:00;;;;;;;;;;;32.00;51.10;;;;;;694395;28;1101;-91
2022/07/02 00:20:21;;;;;;;;;;;32.00;50.00;;;;;;693597;28;1264;-92
2022/07/02 00:20:43;;;;;;;;;;;32.00;50.10;;;;;;691712;28;1052;-91
2022/07/02 00:21:04;;;;;;;;;;;32.00;49.70;;;;;;691678;28;795;-91
2022/07/02 00:21:24;;;;;;;;;;;31.90;49.60;;;;;;688899;28;1331;-89
2022/07/02 00:21:45;;;;;;;;;;;31.90;50.70;;;;;;690538;28;1053;-90
2022/07/02 00:22:06;;;;;;;;;;;32.00;49.60;;;;;;689728;28;1309;-91
2022/07/02 00:22:27;;;;;;;;;;;32.00;50.10;;;;;;691560;28;1159;-90
2022/07/02 00:22:48;;;;;;;;;;;32.00;49.60;;;;;;691373;28;933;-89
2022/07/02 00:23:09;;;;;;;;;;;31.90;49.90;;;;;;692088;28;1217;-92
2022/07/02 00:23:30;;;;;;;;;;;32.00;50.10;;;;;;694504;28;839;-92
2022/07/02 00:23:51;;;;;;;;;;;31.90;50.00;;;;;;694825;28;1221;-91
2022/07/02 00:24:11;;;;;;;;;;;31.90;49.80;;;;;;694289;28;1416;-89
2022/07/02 00:24:32;;;;;;;;;;;31.90;50.00;;;;;;688563;28;1221;-91
2022/07/02 00:24:52;;;;;;;;;;;31.90;50.00;;;;;;689286;28;764;-92
2022/07/02 00:25:13;;;;;;;;;;;31.90;49.80;;;;;;686444;28;1494;-91
2022/07/02 00:25:44;;;;;;;;;;;31.90;49.80;;;;;;686901;28;989;-93
2022/07/02 00:26:08;;;;;;;;;;;31.90;51.10;;;;;;690851;28;802;-92
2022/07/02 00:26:32;;;;;;;;;;;31.90;50.80;;;;;;693826;28;1428;-92
2022/07/02 00:26:54;;;;;;;;;;;32.00;49.80;;;;;;692142;28;1224;-93
2022/07/02 00:27:16;;;;;;;;;;;31.90;49.60;;;;;;691771;28;1231;-89
2022/07/02 00:27:39;;;;;;;;;;;31.90;49.70;;;;;;691863;28;1190;-92
2022/07/02 00:28:00;;;;;;;;;;;31.90;49.80;;;;;;692043;28;845;-92
2022/07/02 00:28:22;;;;;;;;;;;31.90;49.70;;;;;;691934;28;826;-92
2022/07/02 00:28:45;;;;;;;;;;;31.90;49.70;;;;;;693134;28;779;-93
2022/07/02 00:29:12;;;;;;;;;;;31.90;49.70;;;;;;695628;28;1487;-92
2022/07/02 00:29:52;;;;;;;;;;;32.00;49.70;;;;;;695315;28;814;-92
2022/07/02 00:30:14;;;;;;;;;;;31.90;49.80;;;;;;691346;28;1209;-92
2022/07/02 00:30:37;;;;;;;;;;;31.90;50.30;;;;;;688830;28;1245;-87
2022/07/02 00:30:57;;;;;;;;;;;31.90;49.90;;;;;;690347;28;779;-93
2022/07/02 00:31:18;;;;;;;;;;;31.90;49.90;;;;;;691543;28;823;-92
2022/07/02 00:31:39;;;;;;;;;;;31.90;50.00;;;;;;691572;28;874;-92
2022/07/02 00:31:59;;;;;;;;;;;31.90;50.50;;;;;;692274;28;1965;-93
2022/07/02 00:32:20;;;;;;;;;;;31.90;51.00;;;;;;692005;28;1219;-92
2022/07/02 00:32:41;;;;;;;;;;;31.90;50.80;;;;;;694096;28;1001;-93
2022/07/02 00:33:02;;;;;;;;;;;31.90;49.50;;;;;;694249;28;1267;-91
2022/07/02 00:33:23;;;;;;;;;;;31.90;49.70;;;;;;694181;28;1250;-92
2022/07/02 00:33:45;;;;;;;;;;;31.90;49.80;;;;;;691477;28;1495;-92
2022/07/02 00:34:05;;;;;;;;;;;31.90;50.10;;;;;;692130;28;1012;-91
2022/07/02 00:34:28;;;;;;;;;;;32.00;49.80;;;;;;694290;28;985;-90
2022/07/02 00:34:49;;;;;;;;;;;31.90;49.80;;;;;;693456;28;1300;-92
2022/07/02 00:35:12;;;;;;;;;;;32.00;49.60;;;;;;691585;28;1207;-93
2022/07/02 00:35:33;;;;;;;;;;;32.00;49.60;;;;;;689718;28;1165;-92
2022/07/02 00:35:54;;;;;;;;;;;32.00;49.70;;;;;;691583;28;826;-92
2022/07/02 00:36:21;;;;;;;;;;;32.00;49.70;;;;;;688680;28;1212;-89
2022/07/02 00:36:43;;;;;;;;;;;32.00;51.30;;;;;;690927;28;1573;-91
2022/07/02 00:37:03;;;;;;;;;;;32.00;50.00;;;;;;686156;28;1302;-92
2022/07/02 00:37:28;;;;;;;;;;;30.70;49.60;;;;;;684940;28;1229;-92
2022/07/02 00:37:49;;;;;;;;;;;32.00;49.50;;;;;;686498;28;1280;-91
2022/07/02 00:38:09;;;;;;;;;;;32.00;50.60;;;;;;688475;28;1192;-93
2022/07/02 00:38:30;;;;;;;;;;;32.00;49.50;;;;;;690074;28;1363;-93
2022/07/02 00:38:50;;;;;;;;;;;30.80;48.50;;;;;;690193;28;1098;-93
2022/07/02 00:39:11;;;;;;;;;;;32.00;49.50;;;;;;689312;28;1241;-92
2022/07/02 00:39:32;;;;;;;;;;;32.00;49.50;;;;;;686889;28;1316;-92
2022/07/02 00:39:53;;;;;;;;;;;32.00;49.50;;;;;;686828;28;811;-91
2022/07/02 00:40:15;;;;;;;;;;;32.00;49.80;;;;;;685030;28;1290;-93
2022/07/02 00:40:37;;;;;;;;;;;32.10;49.70;;;;;;687329;28;1362;-91
2022/07/02 00:40:59;;;;;;;;;;;32.00;49.70;;;;;;690237;28;999;-92
2022/07/02 00:41:21;;;;;;;;;;;32.00;49.40;;;;;;693673;28;999;-92
2022/07/02 00:41:43;;;;;;;;;;;32.00;49.80;;;;;;694089;28;1189;-91
2022/07/02 00:42:04;;;;;;;;;;;32.00;50.10;;;;;;695704;28;1188;-84
2022/07/02 00:42:25;;;;;;;;;;;32.10;49.60;;;;;;697324;28;1288;-85
2022/07/02 00:42:46;;;;;;;;;;;32.10;49.50;;;;;;696867;28;988;-88
2022/07/02 00:43:07;;;;;;;;;;;32.10;49.60;;;;;;697095;28;885;-91
2022/07/02 00:43:28;;;;;;;;;;;32.10;49.60;;;;;;697792;28;1276;-92
2022/07/02 00:43:49;;;;;;;;;;;32.10;49.60;;;;;;696326;28;1424;-92
2022/07/02 00:44:10;;;;;;;;;;;32.10;49.50;;;;;;696460;28;1211;-91
2022/07/02 00:44:31;;;;;;;;;;;32.00;49.30;;;;;;691037;28;1324;-93
2022/07/02 00:44:52;;;;;;;;;;;32.10;49.50;;;;;;689384;28;961;-91
2022/07/02 00:45:13;;;;;;;;;;;32.10;49.40;;;;;;688829;28;1216;-93
2022/07/02 00:45:35;;;;;;;;;;;32.10;49.30;;;;;;686985;28;1320;-92
2022/07/02 00:45:56;;;;;;;;;;;32.10;49.60;;;;;;686249;28;886;-91
2022/07/02 00:46:18;;;;;;;;;;;32.10;49.60;;;;;;686981;28;1408;-89
2022/07/02 00:46:38;;;;;;;;;;;32.00;50.10;;;;;;688871;28;847;-92
2022/07/02 00:47:04;;;;;;;;;;;32.10;49.60;;;;;;686599;28;1522;-92
2022/07/02 00:47:25;;;;;;;;;;;32.10;49.50;;;;;;688794;28;1298;-92
2022/07/02 00:47:47;;;;;;;;;;;32.10;49.90;;;;;;688826;28;1208;-92
2022/07/02 00:48:08;;;;;;;;;;;32.10;49.40;;;;;;690417;28;1344;-93
2022/07/02 00:48:29;;;;;;;;;;;32.10;49.50;;;;;;691414;28;1291;-88
2022/07/02 00:48:50;;;;;;;;;;;32.10;49.60;;;;;;692837;28;787;-90
2022/07/02 00:49:11;;;;;;;;;;;32.10;49.30;;;;;;694523;28;941;-91
2022/07/02 00:49:34;;;;;;;;;;;32.10;49.40;;;;;;694350;28;897;-93
2022/07/02 00:49:54;;;;;;;;;;;32.10;49.20;;;;;;692279;28;905;-84
2022/07/02 00:50:15;;;;;;;;;;;32.10;49.40;;;;;;694390;28;882;-88
2022/07/02 00:50:35;;;;;;;;;;;32.10;49.30;;;;;;691574;28;1456;-92
2022/07/02 00:50:56;;;;;;;;;;;32.10;49.30;;;;;;688784;28;1594;-91
2022/07/02 00:51:16;;;;;;;;;;;32.10;49.30;;;;;;688616;28;1552;-92
2022/07/02 00:51:37;;;;;;;;;;;32.10;49.30;;;;;;689105;28;1205;-92
2022/07/02 00:51:58;;;;;;;;;;;32.10;50.50;;;;;;691344;28;1886;-91
2022/07/02 00:52:19;;;;;;;;;;;32.10;49.40;;;;;;691780;28;1389;-91
2022/07/02 00:52:40;;;;;;;;;;;32.10;49.70;;;;;;691485;28;1137;-93
2022/07/02 00:53:00;;;;;;;;;;;32.10;51.90;;;;;;688767;28;1435;-92
2022/07/02 00:53:21;;;;;;;;;;;32.10;50.70;;;;;;688837;28;1200;-93
2022/07/02 00:53:41;;;;;;;;;;;32.10;53.20;;;;;;686010;28;1189;-90
2022/07/02 00:54:02;;;;;;;;;;;32.10;50.20;;;;;;686250;28;748;-91
2022/07/02 00:54:26;;;;;;;;;;;32.10;51.00;;;;;;686614;28;831;-96
2022/07/02 00:54:46;;;;;;;;;;;32.10;49.30;;;;;;689653;28;822;-93
2022/07/02 00:55:07;;;;;;;;;;;32.10;50.80;;;;;;692085;28;1412;-87
2022/07/02 00:55:28;;;;;;;;;;;32.10;49.80;;;;;;694531;28;779;-95
2022/07/02 00:56:05;;;;;;;;;;;32.10;50.00;;;;;;695532;28;901;-96
2022/07/02 00:56:36;;;;;;;;;;;32.10;49.50;;;;;;697200;28;898;-96
2022/07/02 00:56:56;;;;;;;;;;;32.10;49.70;;;;;;697513;28;1297;-95
2022/07/02 00:57:17;;;;;;;;;;;32.80;52.20;;;;;;698032;28;779;-94
2022/07/02 00:57:38;;;;;;;;;;;32.10;49.50;;;;;;697698;28;826;-95
2022/07/02 00:57:59;;;;;;;;;;;32.10;49.60;;;;;;697614;28;1028;-96
2022/07/02 00:58:19;;;;;;;;;;;32.10;50.10;;;;;;697611;28;775;-93
2022/07/02 00:58:41;;;;;;;;;;;32.10;49.70;;;;;;694778;28;901;-96
2022/07/02 00:59:03;;;;;;;;;;;32.10;49.50;;;;;;694932;28;834;-96
2022/07/02 00:59:24;;;;;;;;;;;32.10;49.60;;;;;;694674;28;1201;-95
2022/07/02 00:59:45;;;;;;;;;;;32.10;49.60;;;;;;695299;28;914;-93
2022/07/02 01:00:07;;;;;;;;;;;32.10;49.80;;;;;;694248;28;818;-90
2022/07/02 01:00:27;;;;;;;;;;;32.20;49.80;;;;;;694960;28;1183;-90
2022/07/02 01:00:48;;;;;;;;;;;32.10;51.50;;;;;;693951;28;1161;-93
2022/07/02 01:01:08;;;;;;;;;;;32.20;51.00;;;;;;693566;28;1177;-89
2022/07/02 01:01:29;;;;;;;;;;;32.10;50.80;;;;;;688722;28;1208;-92
2022/07/02 01:01:50;;;;;;;;;;;32.10;51.10;;;;;;688670;28;1341;-91
2022/07/02 01:02:11;;;;;;;;;;;32.10;49.80;;;;;;688699;28;1319;-93
2022/07/02 01:02:32;;;;;;;;;;;32.10;50.50;;;;;;689022;28;1283;-93
2022/07/02 01:02:55;;;;;;;;;;;32.10;50.00;;;;;;688360;28;1256;-90
2022/07/02 01:03:17;;;;;;;;;;;32.10;50.10;;;;;;689256;28;1237;-91
2022/07/02 01:03:38;;;;;;;;;;;32.10;49.70;;;;;;692358;28;816;-90
2022/07/02 01:04:00;;;;;;;;;;;32.10;50.70;;;;;;694061;28;1192;-91
2022/07/02 01:04:23;;;;;;;;;;;32.10;50.60;;;;;;693041;28;1209;-91
2022/07/02 01:04:44;;;;;;;;;;;32.30;50.70;;;;;;689973;28;1221;-91
2022/07/02 01:05:05;;;;;;;;;;;32.10;50.00;;;;;;688533;28;1260;-89
2022/07/02 01:05:25;;;;;;;;;;;32.20;50.00;;;;;;688604;28;1297;-90
2022/07/02 01:05:47;;;;;;;;;;;32.10;51.20;;;;;;687638;28;1466;-88
2022/07/02 01:06:08;;;;;;;;;;;32.30;50.80;;;;;;688549;28;1430;-91
2022/07/02 01:06:30;;;;;;;;;;;32.20;52.20;;;;;;688597;28;1121;-93
2022/07/02 01:06:52;;;;;;;;;;;32.20;50.30;;;;;;688684;28;1161;-92
2022/07/02 01:07:13;;;;;;;;;;;32.20;50.40;;;;;;686654;28;1189;-90
2022/07/02 01:07:34;;;;;;;;;;;32.10;50.40;;;;;;687875;28;819;-91
2022/07/02 01:10:36;;;;;;;;;;;32.20;50.20;;;;;;697075;28;1371;-83
2022/07/02 01:10:57;;;;;;;;;;;32.20;52.70;;;;;;695313;28;1406;-93
2022/07/02 01:11:18;;;;;;;;;;;32.10;53.40;;;;;;694755;28;1577;-96
2022/07/02 01:11:40;;;;;;;;;;;31.20;51.10;;;;;;695362;28;1441;-96
2022/07/02 01:12:02;;;;;;;;;;;32.20;51.80;;;;;;692256;28;1879;-96
2022/07/02 01:12:26;;;;;;;;;;;32.20;51.10;;;;;;693542;28;1416;-95
2022/07/02 01:12:51;;;;;;;;;;;32.20;51.50;;;;;;692370;28;1318;-81
2022/07/02 01:13:12;;;;;;;;;;;32.20;50.90;;;;;;694540;28;1598;-87
2022/07/02 01:13:33;;;;;;;;;;;32.20;51.40;;;;;;691507;28;1464;-87
2022/07/02 01:13:55;;;;;;;;;;;32.20;51.10;;;;;;694022;28;1475;-95
2022/07/02 01:14:20;;;;;;;;;;;32.20;51.40;;;;;;692965;28;1704;-92
2022/07/02 01:14:40;;;;;;;;;;;32.20;51.20;;;;;;692106;28;1781;-88
2022/07/02 01:15:01;;;;;;;;;;;32.20;51.90;;;;;;691460;28;874;-92
2022/07/02 01:15:22;;;;;;;;;;;32.20;50.80;;;;;;689816;28;1114;-91
2022/07/02 01:15:42;;;;;;;;;;;32.20;50.80;;;;;;691794;28;815;-93
2022/07/02 01:16:03;;;;;;;;;;;32.20;50.80;;;;;;689463;28;1309;-94
2022/07/02 01:16:23;;;;;;;;;;;32.20;50.70;;;;;;691203;28;1470;-86
2022/07/02 01:16:44;;;;;;;;;;;32.20;51.30;;;;;;694639;28;984;-94
2022/07/02 01:17:06;;;;;;;;;;;32.20;50.90;;;;;;692174;28;1501;-95
2022/07/02 01:17:27;;;;;;;;;;;32.20;50.80;;;;;;694788;28;798;-94
2022/07/02 01:17:47;;;;;;;;;;;32.20;50.90;;;;;;694265;28;1238;-93
2022/07/02 01:18:08;;;;;;;;;;;32.20;50.50;;;;;;694630;28;834;-95
2022/07/02 01:18:28;;;;;;;;;;;32.20;50.90;;;;;;694260;28;1373;-88
2022/07/02 01:18:49;;;;;;;;;;;32.20;50.50;;;;;;694288;28;877;-93
2022/07/02 01:19:11;;;;;;;;;;;32.20;50.40;;;;;;694362;28;791;-91
2022/07/02 01:19:33;;;;;;;;;;;32.20;50.40;;;;;;694724;28;929;-95
2022/07/02 01:19:53;;;;;;;;;;;32.20;50.20;;;;;;696893;28;905;-94
2022/07/02 01:20:14;;;;;;;;;;;32.20;50.40;;;;;;696787;28;791;-90
2022/07/02 01:20:35;;;;;;;;;;;32.20;50.50;;;;;;696979;28;898;-83
2022/07/02 01:20:55;;;;;;;;;;;32.20;50.20;;;;;;696943;28;1325;-89
2022/07/02 01:21:16;;;;;;;;;;;32.20;50.30;;;;;;698557;28;1309;-94
2022/07/02 01:21:37;;;;;;;;;;;32.20;50.50;;;;;;699744;28;581;-93
2022/07/02 01:22:14;;;;;;;;;;;32.20;50.10;;;;;;699776;28;1344;-95
2022/07/02 01:22:35;;;;;;;;;;;32.20;50.10;;;;;;699948;28;938;-91
2022/07/02 01:22:56;;;;;;;;;;;32.20;50.30;;;;;;699838;28;894;-91
2022/07/02 01:23:16;;;;;;;;;;;32.20;50.50;;;;;;699901;28;953;-96
2022/07/02 01:23:37;;;;;;;;;;;32.20;50.40;;;;;;699870;28;826;-92
2022/07/02 01:23:57;;;;;;;;;;;32.20;50.60;;;;;;699851;28;961;-95
2022/07/02 01:24:24;;;;;;;;;;;32.20;51.10;;;;;;699891;28;874;-95
2022/07/02 01:24:46;;;;;;;;;;;32.20;52.10;;;;;;696382;28;1421;-82
2022/07/02 01:25:07;;;;;;;;;;;32.20;52.00;;;;;;696895;28;798;-93
2022/07/02 01:25:28;;;;;;;;;;;32.10;51.20;;;;;;696842;28;1322;-94
2022/07/02 01:25:52;;;;;;;;;;;32.20;50.20;;;;;;696897;28;847;-88
2022/07/02 01:26:12;;;;;;;;;;;32.20;50.50;;;;;;697026;28;932;-95
2022/07/02 01:26:33;;;;;;;;;;;32.20;50.70;;;;;;696836;28;1317;-93
2022/07/02 01:26:53;;;;;;;;;;;32.20;50.50;;;;;;694024;28;1321;-95
2022/07/02 01:27:14;;;;;;;;;;;32.20;51.20;;;;;;694422;28;968;-93
2022/07/02 01:27:35;;;;;;;;;;;32.10;50.30;;;;;;691740;28;1231;-83
2022/07/02 01:27:56;;;;;;;;;;;32.10;50.00;;;;;;691706;28;882;-94
2022/07/02 01:28:16;;;;;;;;;;;32.10;51.10;;;;;;692165;28;794;-94
2022/07/02 01:28:37;;;;;;;;;;;32.10;50.40;;;;;;695030;28;1122;-91
2022/07/02 01:28:57;;;;;;;;;;;32.10;50.30;;;;;;697359;28;973;-94
2022/07/02 01:29:18;;;;;;;;;;;32.10;50.40;;;;;;697630;28;1403;-95
2022/07/02 01:29:39;;;;;;;;;;;32.10;50.80;;;;;;700237;28;1071;-95
2022/07/02 01:30:00;;;;;;;;;;;32.10;50.10;;;;;;700385;28;898;-92
2022/07/02 01:30:20;;;;;;;;;;;32.10;50.60;;;;;;700165;28;880;-95
2022/07/02 01:30:41;;;;;;;;;;;32.10;51.30;;;;;;696977;28;1187;-95
2022/07/02 01:31:01;;;;;;;;;;;32.10;51.20;;;;;;694668;28;1192;-96
2022/07/02 01:31:23;;;;;;;;;;;32.10;51.20;;;;;;694531;28;882;-92
2022/07/02 01:31:43;;;;;;;;;;;32.10;50.30;;;;;;691773;28;1491;-95
2022/07/02 01:32:04;;;;;;;;;;;32.10;50.50;;;;;;692479;28;1886;-95
2022/07/02 01:32:25;;;;;;;;;;;32.10;50.20;;;;;;692825;28;1228;-87
2022/07/02 01:32:46;;;;;;;;;;;32.10;50.60;;;;;;696049;28;909;-91
2022/07/02 01:33:06;;;;;;;;;;;32.10;51.00;;;;;;698113;28;1072;-94
2022/07/02 01:33:27;;;;;;;;;;;32.10;50.30;;;;;;698760;28;850;-94
2022/07/02 01:33:47;;;;;;;;;;;32.10;50.30;;;;;;697947;28;1312;-93
2022/07/02 01:34:08;;;;;;;;;;;32.10;50.50;;;;;;698037;28;822;-94
2022/07/02 01:34:32;;;;;;;;;;;32.00;50.30;;;;;;698094;28;1105;-96
2022/07/02 01:35:00;;;;;;;;;;;32.10;50.50;;;;;;698106;28;1030;-95
2022/07/02 01:35:20;;;;;;;;;;;32.00;50.20;;;;;;698055;28;865;-95
2022/07/02 01:35:41;;;;;;;;;;;32.00;50.40;;;;;;700046;28;902;-94
2022/07/02 01:36:02;;;;;;;;;;;32.00;50.90;;;;;;697911;28;1351;-93
2022/07/02 01:36:22;;;;;;;;;;;32.00;51.00;;;;;;698041;28;1279;-95
2022/07/02 01:36:52;;;;;;;;;;;32.00;51.10;;;;;;698452;28;1279;-93
2022/07/02 01:37:14;;;;;;;;;;;32.00;51.60;;;;;;698992;28;866;-90
2022/07/02 01:37:37;;;;;;;;;;;32.00;50.50;;;;;;699116;28;889;-94
2022/07/02 01:37:57;;;;;;;;;;;32.00;50.60;;;;;;698333;28;1265;-94
2022/07/02 01:38:18;;;;;;;;;;;32.00;50.50;;;;;;697181;28;878;-90
2022/07/02 01:38:38;;;;;;;;;;;32.00;50.60;;;;;;698376;28;544;-92
2022/07/02 01:38:59;;;;;;;;;;;32.00;50.60;;;;;;699122;28;1060;-91
2022/07/02 01:39:24;;;;;;;;;;;32.00;50.50;;;;;;699467;28;941;-93
2022/07/02 01:39:45;;;;;;;;;;;32.00;50.30;;;;;;700030;28;909;-92
2022/07/02 01:40:06;;;;;;;;;;;32.00;51.80;;;;;;701832;28;1008;-94
2022/07/02 01:40:27;;;;;;;;;;;32.00;50.30;;;;;;701172;28;1067;-92
2022/07/02 01:40:47;;;;;;;;;;;32.00;50.30;;;;;;701175;28;1091;-93
2022/07/02 01:41:47;;;;;;;;;;;31.90;50.50;;;;;;701352;28;1467;-95
2022/07/02 01:42:08;;;;;;;;;;;31.90;50.30;;;;;;701817;28;1157;-93
2022/07/02 01:42:29;;;;;;;;;;;31.90;50.20;;;;;;702237;28;965;-88
2022/07/02 01:42:49;;;;;;;;;;;32.00;50.40;;;;;;701708;28;906;-91
2022/07/02 01:43:10;;;;;;;;;;;31.90;50.40;;;;;;701996;28;1075;-94
2022/07/02 01:43:30;;;;;;;;;;;31.90;51.70;;;;;;701568;28;1016;-87
2022/07/02 01:43:51;;;;;;;;;;;31.90;51.00;;;;;;702412;28;1024;-92
2022/07/02 01:44:11;;;;;;;;;;;31.90;50.70;;;;;;702848;28;1091;-89
2022/07/02 01:44:32;;;;;;;;;;;31.90;50.70;;;;;;703026;28;810;-91
2022/07/02 01:44:53;;;;;;;;;;;31.90;50.60;;;;;;699782;28;1191;-90
2022/07/02 01:45:14;;;;;;;;;;;31.90;50.60;;;;;;696808;28;1295;-93
2022/07/02 01:45:34;;;;;;;;;;;31.90;51.40;;;;;;697037;28;993;-92
2022/07/02 01:45:55;;;;;;;;;;;31.90;50.60;;;;;;696370;28;1281;-84
2022/07/02 01:46:15;;;;;;;;;;;31.90;50.10;;;;;;697126;28;1036;-84
2022/07/02 01:46:36;;;;;;;;;;;31.90;50.30;;;;;;697842;28;902;-87
2022/07/02 01:46:57;;;;;;;;;;;31.90;50.00;;;;;;699484;28;802;-92
2022/07/02 01:47:17;;;;;;;;;;;31.90;49.90;;;;;;701862;28;1020;-93
2022/07/02 01:47:38;;;;;;;;;;;31.90;50.60;;;;;;698964;28;1218;-94
2022/07/02 01:47:58;;;;;;;;;;;31.90;50.90;;;;;;699338;28;1132;-95
2022/07/02 01:48:20;;;;;;;;;;;31.90;50.10;;;;;;699216;28;1036;-94
2022/07/02 01:48:41;;;;;;;;;;;31.90;50.10;;;;;;699487;28;1280;-93
2022/07/02 01:49:02;;;;;;;;;;;32.50;50.50;;;;;;699915;28;1319;-89
2022/07/02 01:49:22;;;;;;;;;;;31.90;50.10;;;;;;700122;28;848;-90
2022/07/02 01:49:44;;;;;;;;;;;31.90;50.00;;;;;;700060;28;830;-82
2022/07/02 01:50:05;;;;;;;;;;;31.90;50.10;;;;;;700121;28;838;-84
2022/07/02 01:50:25;;;;;;;;;;;31.90;50.00;;;;;;700308;28;1144;-83
2022/07/02 01:50:46;;;;;;;;;;;31.90;50.00;;;;;;700731;28;936;-85
2022/07/02 01:51:06;;;;;;;;;;;31.90;49.60;;;;;;703029;28;846;-82
2022/07/02 01:51:27;;;;;;;;;;;31.90;49.80;;;;;;702935;28;1028;-81
2022/07/02 01:51:50;;;;;;;;;;;31.90;49.60;;;;;;702729;28;857;-89
2022/07/02 01:52:13;;;;;;;;;;;31.90;49.90;;;;;;703028;28;1874;-88
2022/07/02 01:52:33;;;;;;;;;;;31.90;49.80;;;;;;702956;28;952;-84
2022/07/02 01:52:57;;;;;;;;;;;31.90;50.00;;;;;;703107;28;743;-85
2022/07/02 01:53:18;;;;;;;;;;;31.90;49.80;;;;;;702923;28;1071;-85
2022/07/02 01:53:38;;;;;;;;;;;31.90;49.60;;;;;;700159;28;1181;-84
2022/07/02 01:53:59;;;;;;;;;;;31.90;50.00;;;;;;700169;28;992;-85
2022/07/02 01:54:19;;;;;;;;;;;31.80;49.70;;;;;;700164;28;1517;-89
2022/07/02 01:54:40;;;;;;;;;;;31.90;49.70;;;;;;702917;28;1372;-87
2022/07/02 01:55:03;;;;;;;;;;;31.80;49.90;;;;;;699673;28;876;-92
2022/07/02 01:55:24;;;;;;;;;;;31.90;49.90;;;;;;699075;28;798;-95
2022/07/02 01:55:44;;;;;;;;;;;31.90;49.60;;;;;;696785;28;856;-96
2022/07/02 01:56:05;;;;;;;;;;;31.90;49.40;;;;;;697579;28;842;-83
2022/07/02 01:56:25;;;;;;;;;;;31.90;51.30;;;;;;699581;28;593;-93
2022/07/02 01:56:46;;;;;;;;;;;31.80;50.70;;;;;;699766;28;1091;-94
2022/07/02 01:57:07;;;;;;;;;;;31.90;49.90;;;;;;699732;28;814;-95
2022/07/02 01:57:35;;;;;;;;;;;31.90;49.70;;;;;;699855;28;885;-96
2022/07/02 01:57:55;;;;;;;;;;;31.90;49.30;;;;;;696785;28;1199;-93
2022/07/02 01:58:16;;;;;;;;;;;31.90;49.60;;;;;;696714;28;1291;-95
2022/07/02 01:58:37;;;;;;;;;;;31.80;49.40;;;;;;696640;28;1115;-96
2022/07/02 01:58:57;;;;;;;;;;;31.90;49.80;;;;;;696825;28;795;-95
2022/07/02 01:59:18;;;;;;;;;;;31.80;49.80;;;;;;696844;28;910;-93
2022/07/02 01:59:39;;;;;;;;;;;31.90;50.10;;;;;;696811;28;819;-94
2022/07/02 01:59:59;;;;;;;;;;;31.90;50.00;;;;;;696827;28;894;-88
2022/07/02 02:00:20;;;;;;;;;;;31.80;49.90;;;;;;697135;28;996;-93
2022/07/02 02:00:41;;;;;;;;;;;31.90;49.60;;;;;;697907;28;850;-92
2022/07/02 02:01:03;;;;;;;;;;;31.90;49.70;;;;;;697875;28;811;-95
2022/07/02 02:01:24;;;;;;;;;;;31.80;49.40;;;;;;698565;28;893;-94
2022/07/02 02:01:44;;;;;;;;;;;31.80;49.20;;;;;;700865;28;818;-92
2022/07/02 02:02:05;;;;;;;;;;;31.80;49.30;;;;;;700328;28;991;-83
2022/07/02 02:02:26;;;;;;;;;;;31.90;49.50;;;;;;700504;28;1001;-88
2022/07/02 02:02:46;;;;;;;;;;;31.90;49.20;;;;;;700303;28;1087;-94
2022/07/02 02:03:07;;;;;;;;;;;31.80;49.40;;;;;;700097;28;881;-91
2022/07/02 02:03:28;;;;;;;;;;;31.90;49.50;;;;;;697056;28;1471;-94
2022/07/02 02:03:48;;;;;;;;;;;31.90;49.20;;;;;;697168;28;877;-94
2022/07/02 02:04:09;;;;;;;;;;;31.80;49.30;;;;;;697210;28;972;-89
2022/07/02 02:04:30;;;;;;;;;;;31.80;49.80;;;;;;697225;28;841;-95
2022/07/02 02:05:17;;;;;;;;;;;31.80;49.60;;;;;;699642;28;826;-84
2022/07/02 02:05:39;;;;;;;;;;;31.80;49.80;;;;;;701897;28;1359;-91
2022/07/02 02:06:00;;;;;;;;;;;31.80;49.10;;;;;;701168;28;810;-94
2022/07/02 02:06:21;;;;;;;;;;;31.80;49.40;;;;;;697578;28;1340;-96
2022/07/02 02:06:42;;;;;;;;;;;31.90;49.50;;;;;;697304;28;810;-96
2022/07/02 02:07:03;;;;;;;;;;;31.90;50.10;;;;;;697088;28;842;-95
2022/07/02 02:07:23;;;;;;;;;;;31.80;48.80;;;;;;697226;28;1252;-96
2022/07/02 02:07:44;;;;;;;;;;;31.80;49.30;;;;;;696900;28;1214;-96
2022/07/02 02:08:05;;;;;;;;;;;31.90;50.00;;;;;;697254;28;1398;-95
2022/07/02 02:08:25;;;;;;;;;;;31.80;49.10;;;;;;699619;28;1334;-93
2022/07/02 02:08:46;;;;;;;;;;;31.80;48.90;;;;;;700070;28;806;-91
2022/07/02 02:09:06;;;;;;;;;;;31.90;48.80;;;;;;699976;28;795;-95
2022/07/02 02:09:27;;;;;;;;;;;31.80;48.80;;;;;;700113;28;881;-95
2022/07/02 02:09:47;;;;;;;;;;;31.80;48.70;;;;;;700061;28;802;-96
2022/07/02 02:10:08;;;;;;;;;;;31.80;49.10;;;;;;700269;28;901;-96
2022/07/02 02:10:29;;;;;;;;;;;31.80;48.60;;;;;;700128;28;890;-90
2022/07/02 02:10:49;;;;;;;;;;;31.80;48.80;;;;;;700294;28;826;-96
2022/07/02 02:11:10;;;;;;;;;;;31.80;48.30;;;;;;697126;28;981;-93
2022/07/02 02:11:31;;;;;;;;;;;31.80;48.30;;;;;;697037;28;999;-94
2022/07/02 02:11:51;;;;;;;;;;;31.80;48.10;;;;;;697114;28;1322;-96
2022/07/02 02:12:12;;;;;;;;;;;31.80;48.60;;;;;;697222;28;1902;-96
2022/07/02 02:12:32;;;;;;;;;;;31.30;47.90;;;;;;696955;28;1286;-96
2022/07/02 02:12:53;;;;;;;;;;;31.80;48.60;;;;;;696099;28;1298;-96
2022/07/02 02:13:13;;;;;;;;;;;31.80;48.10;;;;;;697608;28;802;-95